New Limerick, Maine
Current Conditions -  °F | °C
As of 4:18 AM on Wednesday 28 Jan 2015 (Local Time) from KHUL Reporting Station
Light Snow Light Snow  
Wind Chill: -5°   Ceiling: 3600
Heat Index: 11°   Visibility: 2.5mi
Dew Point:   Wind: 15mph
Humidity: 81%   Direction: 360°N
Pressure: 29.7"   Gusts: NA
Location:  46.1°N, 67.96°W
Report Text: KHUL 280918Z AUTO 36013KT 2 1/2SM -SN OVC036 M12/M14 A2970 RMK AO2 P0000 T11171144
Loading
Personal Weather Stations






























Interactive Weather Map New forecast layout! Learn more

10-Day Weather Forecast

Advertisements
Track Severe Weather on mobile